Aeroporto :
LOGIN :

Iscrizione | Disclaimer

   EN    FR    IT 

 










Sommario :    VFR   VFR Marginale   IFR   IFR Intensivo   IFR Molto Intensivo
Visibilità : 
Base nubi : 
>= 8 km
>= 3000ft
5 / 8 km
1000 / 3000 ft
1500m / 5 km
500 / 1000 ft
800 / 1500m
200 / 500 ft
< 800m
< 200 ft
Simboli :   Temporali  Nebbia  Neve Forte  Precipitazioni Forti  Vento > 20 kt
SIGMETs :   Varie  Temporali  Ghiacco  Turbolenza  Onda orograficha  Ceneri Vulcaniche







- Altitudine del aeroporto : 3 ft
- Codice IATA : DHR


EHKD - Den Helder De Kooy

ULTIMO METAR :
  • 191155Z AUTO 26007KT 230V300 9999 FEW036 OVC044 19/14 Q1023 BLU 26006KT 9999 FEW015 BKN040

METARs OBSOLETI :
  • 191134Z AUTO 26007KT 220V280 9999 BKN032 OVC045 19/15 Q1023 BLU 26006KT 9999 FEW015 BKN040
  • 191125Z AUTO 26007KT 230V300 9999 FEW010 OVC046 18/15 Q1023 BLU 26006KT 9999 FEW010 BKN040
  • 191055Z AUTO 27008KT 240V320 9999 FEW009 OVC048 18/15 Q1022 BLU 26006KT 9999 FEW010 BKN040
  • 191025Z AUTO 26006KT 230V300 9999 OVC044 18/15 Q1022 BLU 26006KT 9999 SCT007 SCT014 BKN030 BECMG SCT020 BKN035
  • 191010Z AUTO 26006KT 210V290 9999 FEW008 SCT038 OVC044 17/15 Q1022 BLU 26006KT 9999 SCT007 SCT014 BKN030 BECMG SCT020 BKN035
  • 190955Z AUTO 27008KT 230V310 9999 BKN007 BKN008 OVC044 17/15 Q1022 GRN 26006KT 9999 SCT007 SCT014 BKN030 BECMG SCT020 BKN035
  • 190937Z AUTO 26008KT 230V290 9999 SCT006 BKN008 OVC034 17/15 Q1022 YLO 26006KT 9999 SCT007 SCT014 BKN030 BECMG SCT020 BKN035
  • 190925Z AUTO 28007KT 250V310 9999 FEW007 OVC036 17/15 Q1022 BLU 27006KT 9999 FEW008 SCT014 BKN030 BECMG SCT020 BKN035

TAF TAF EHKD
Valido dal 19 a 09 ore il 19 a 21 ore UTC


190839Z 1909/1921 30009KT 9999 SCT008 BKN010
BECMG 1909/1911 SCT025 BKN040
BECMG 1915/1918 20006KT
Nessun NOTAM noto per questo aeroporto.



MetMap, La meteo Aeronautica in un colpo d'occhio ! - Copyright ORBIFLY Dicembre 2007 - Disclaimer

ORBIFLY MET'MAP TEAM :

Programmazione e sviluppo : Alexandra Zaïnal
Concezione e sviluppo : Baudouin d'Aumeries
Co-Programmazione e sviluppo : Marc-Olivier Méhu
Supporto tecnico e logistico : Manuel Goepfert
Aiuto per la traduzione : Arnaldo La Scala

Contatto : metmap@orbifly.com




FONTI E CREDITI :

   NOAA